Dades meteomassalio
Diari Summary for Febrer 9, 2017 Units:  English    Metric   Both
« Previous Day
Next Day »
Diari Semanal Mensual Anual Personalitzat
  Maxima: Minima: Mijana:
Temperatura: TemperatureC °F 3.0 °F 6.7 °F
Rosada: DewpointC °F -1.3 °F 1 °F
Humitat: Humidity % 37 % 69 %
Velocitat del vent: WindSpeedKMH mph 0.0 mph 13.9 mph
Racha vent: WindSpeedGustKMH mph - -
Vent:- - WNW
Pressio: PressurehPa in 1016.5 in -
Pluja: 0.0 in    
Historical Graphs
 
 
Tabular Data for Febrer 9, 2017
Time Temperature Dew Point Pressure Wind Wind Speed Wind Gust Humidity Rainfall Rate (Hourly) solar Conditions
TemperatureC °F DewpointC °F PressurehPa in Calm     Humidity % HourlyPrecipMM in SolarRadiationWatts/m^2 W/m2 Conditions
00:03 5.4 °F 1.8 °F 1024.6 in NW 40.7 mph 40.7 mph 78 % 0.0 in 0.0 W/m2 CLR
00:08 5.4 °F 1.8 °F 1024.6 in NW 35.2 mph 35.2 mph 78 % 0.0 in 0.0 W/m2 CLR
00:13 5.4 °F 1.8 °F 1024.6 in NW 42.6 mph 42.6 mph 78 % 0.0 in 0.0 W/m2 CLR
00:18 5.3 °F 1.8 °F 1024.6 in NW 38.9 mph 38.9 mph 78 % 0.0 in 0.0 W/m2 CLR
00:23 5.4 °F 1.8 °F 1024.9 in NW 31.5 mph 31.5 mph 78 % 0.0 in 0.0 W/m2 CLR
00:28 5.3 °F 1.8 °F 1024.6 in NW 42.6 mph 42.6 mph 78 % 0.0 in 0.0 W/m2 CLR
00:33 5.4 °F 1.8 °F 1024.9 in NW 25.9 mph 25.9 mph 78 % 0.0 in 0.0 W/m2 CLR
00:38 5.3 °F 1.8 °F 1024.9 in NW 30.6 mph 30.6 mph 78 % 0.0 in 0.0 W/m2 CLR
00:43 5.4 °F 1.8 °F 1024.9 in NW 42.6 mph 42.6 mph 78 % 0.0 in 0.0 W/m2 CLR
00:48 5.4 °F 1.9 °F 1024.9 in NW 40.7 mph 40.7 mph 78 % 0.0 in 0.0 W/m2 CLR
00:53 5.4 °F 1.8 °F 1024.9 in NW 37.0 mph 37.0 mph 78 % 0.0 in 0.0 W/m2 CLR
00:58 5.4 °F 1.7 °F 1024.9 in NW 31.5 mph 31.5 mph 77 % 0.0 in 0.0 W/m2 CLR
01:03 5.4 °F 1.8 °F 1024.9 in NW 31.5 mph 31.5 mph 78 % 0.0 in 0.0 W/m2 CLR
01:08 5.3 °F 1.8 °F 1024.6 in NW 27.8 mph 27.8 mph 78 % 0.0 in 0.0 W/m2 CLR
01:13 5.3 °F 1.8 °F 1024.6 in NW 32.2 mph 32.2 mph 78 % 0.0 in 0.0 W/m2 CLR
01:18 5.3 °F 1.8 °F 1024.6 in NW 29.6 mph 29.6 mph 78 % 0.0 in 0.0 W/m2 CLR
01:23 5.2 °F 1.9 °F 1024.6 in NW 29.6 mph 29.6 mph 79 % 0.0 in 0.0 W/m2 CLR
01:28 5.3 °F 1.9 °F 1024.6 in NW 31.5 mph 31.5 mph 79 % 0.0 in 0.0 W/m2 CLR
01:33 5.2 °F 1.9 °F 1024.6 in NW 35.2 mph 35.2 mph 79 % 0.0 in 0.0 W/m2 CLR
01:38 5.1 °F 1.8 °F 1024.6 in NW 27.8 mph 27.8 mph 79 % 0.0 in 0.0 W/m2 CLR
01:43 5.1 °F 1.8 °F 1024.6 in NW 24.1 mph 24.1 mph 79 % 0.0 in 0.0 W/m2 CLR
01:48 5.2 °F 1.8 °F 1024.6 in NW 38.9 mph 38.9 mph 79 % 0.0 in 0.0 W/m2 CLR
01:53 5.2 °F 1.8 °F 1024.6 in NW 31.5 mph 31.5 mph 79 % 0.0 in 0.0 W/m2 CLR
01:58 5.1 °F 1.6 °F 1024.3 in NW 32.2 mph 32.2 mph 78 % 0.0 in 0.0 W/m2 CLR
02:03 5.2 °F 1.7 °F 1024.3 in NW 35.2 mph 35.2 mph 78 % 0.0 in 0.0 W/m2 CLR
02:08 5.2 °F 1.7 °F 1024.3 in NW 42.6 mph 42.6 mph 78 % 0.0 in 0.0 W/m2 CLR
02:13 5.1 °F 1.6 °F 1024.3 in NW 42.6 mph 42.6 mph 78 % 0.0 in 0.0 W/m2 CLR
02:18 5.1 °F 1.6 °F 1024.3 in NW 33.8 mph 33.8 mph 78 % 0.0 in 0.0 W/m2 CLR
02:23 5.1 °F 1.6 °F 1024.3 in NW 38.6 mph 38.6 mph 78 % 0.0 in 0.0 W/m2 CLR
02:28 5.1 °F 1.6 °F 1024.3 in NW 44.4 mph 44.4 mph 78 % 0.0 in 0.0 W/m2 CLR
02:33 5.2 °F 1.7 °F 1024.3 in NW 33.8 mph 33.8 mph 78 % 0.0 in 0.0 W/m2 CLR
02:38 5.2 °F 1.7 °F 1024.3 in NW 42.6 mph 42.6 mph 78 % 0.0 in 0.0 W/m2 CLR
02:43 5.1 °F 1.6 °F 1024.3 in NW 40.7 mph 40.7 mph 78 % 0.0 in 0.0 W/m2 CLR
02:48 5.1 °F 1.6 °F 1024.3 in NW 43.4 mph 43.4 mph 78 % 0.0 in 0.0 W/m2 CLR
02:53 5.1 °F 1.6 °F 1024.3 in NW 37.0 mph 37.0 mph 78 % 0.0 in 0.0 W/m2 CLR
02:58 5.0 °F 1.5 °F 1023.9 in NW 33.3 mph 33.3 mph 78 % 0.0 in 0.0 W/m2 CLR
03:03 5.0 °F 1.7 °F 1023.9 in NW 37.0 mph 37.0 mph 79 % 0.0 in 0.0 W/m2 CLR
03:08 4.9 °F 1.6 °F 1023.9 in NW 42.6 mph 42.6 mph 79 % 0.0 in 0.0 W/m2 CLR
03:13 4.9 °F 1.6 °F 1023.9 in NW 38.9 mph 38.9 mph 79 % 0.0 in 0.0 W/m2 CLR
03:18 4.9 °F 1.6 °F 1023.9 in NW 35.2 mph 35.2 mph 79 % 0.0 in 0.0 W/m2 CLR
03:23 4.8 °F 1.7 °F 1023.9 in NW 33.3 mph 33.3 mph 80 % 0.0 in 0.0 W/m2 CLR
03:28 4.7 °F 1.6 °F 1023.9 in NW 33.3 mph 33.3 mph 80 % 0.0 in 0.0 W/m2 CLR
03:33 4.7 °F 1.5 °F 1023.9 in NW 22.2 mph 22.2 mph 80 % 0.0 in 0.0 W/m2 CLR
03:38 4.6 °F 1.4 °F 1023.6 in WNW 31.5 mph 31.5 mph 80 % 0.0 in 0.0 W/m2 CLR
03:43 4.5 °F 1.3 °F 1023.6 in WNW 18.5 mph 18.5 mph 80 % 0.0 in 0.0 W/m2 CLR
03:48 4.5 °F 1.3 °F 1023.6 in WNW 22.2 mph 22.2 mph 80 % 0.0 in 0.0 W/m2 CLR
03:53 4.4 °F 1.3 °F 1023.6 in WNW 37.0 mph 37.0 mph 80 % 0.0 in 0.0 W/m2 CLR
03:58 4.4 °F 1.2 °F 1023.2 in WNW 27.8 mph 27.8 mph 80 % 0.0 in 0.0 W/m2 CLR
04:03 4.3 °F 1.2 °F 1023.2 in WNW 20.4 mph 22.8 mph 80 % 0.0 in 0.0 W/m2 CLR
04:08 4.3 °F 1.2 °F 1023.2 in NW 24.1 mph 24.1 mph 80 % 0.0 in 0.0 W/m2 CLR
04:14 4.3 °F 1.2 °F 1023.2 in NW 27.8 mph 27.8 mph 80 % 0.0 in 0.0 W/m2 CLR
04:19 4.4 °F 1.3 °F 1023.2 in NW 29.6 mph 29.6 mph 80 % 0.0 in 0.0 W/m2 CLR
04:24 4.4 °F 1.1 °F 1023.2 in WNW 29.6 mph 29.6 mph 79 % 0.0 in 0.0 W/m2 CLR
04:29 4.5 °F 1.2 °F 1023.2 in WNW 31.5 mph 31.5 mph 79 % 0.0 in 0.0 W/m2 CLR
04:34 4.4 °F 1.1 °F 1023.2 in WNW 29.0 mph 29.0 mph 79 % 0.0 in 0.0 W/m2 CLR
04:39 4.3 °F 1.2 °F 1023.2 in WNW 31.5 mph 31.5 mph 80 % 0.0 in 0.0 W/m2 CLR
04:44 4.3 °F 1.1 °F 1023.2 in WNW 30.6 mph 30.6 mph 80 % 0.0 in 0.0 W/m2 CLR
04:49 4.3 °F 1.1 °F 1023.2 in WNW 25.9 mph 25.9 mph 80 % 0.0 in 0.0 W/m2 CLR
04:54 4.1 °F 1.2 °F 1023.2 in WNW 25.9 mph 25.9 mph 81 % 0.0 in 0.0 W/m2 CLR
04:59 4.0 °F 1.1 °F 1023.2 in WNW 14.8 mph 14.8 mph 81 % 0.0 in 0.0 W/m2 CLR
05:04 3.9 °F 1.0 °F 1023.2 in WNW 17.7 mph 17.7 mph 81 % 0.0 in 0.0 W/m2 CLR
05:09 3.9 °F 1.2 °F 1023.2 in WNW 18.5 mph 18.5 mph 82 % 0.0 in 0.0 W/m2 CLR
05:14 4.0 °F 1.1 °F 1023.2 in West 18.5 mph 18.5 mph 81 % 0.0 in 0.0 W/m2 CLR
05:19 4.1 °F 1.2 °F 1023.2 in WNW 20.4 mph 20.4 mph 81 % 0.0 in 0.0 W/m2 CLR
05:24 4.1 °F 1.2 °F 1023.6 in West 18.5 mph 18.5 mph 81 % 0.0 in 0.0 W/m2 CLR
05:29 4.1 °F 1.3 °F 1023.2 in West 20.4 mph 20.4 mph 82 % 0.0 in 0.0 W/m2 CLR
05:34 4.1 °F 1.3 °F 1023.2 in West 20.4 mph 20.4 mph 82 % 0.0 in 0.0 W/m2 CLR
05:39 4.2 °F 1.4 °F 1023.2 in West 25.9 mph 25.9 mph 82 % 0.0 in 0.0 W/m2 CLR
05:44 4.1 °F 1.3 °F 1023.2 in WNW 25.9 mph 25.9 mph 82 % 0.0 in 0.0 W/m2 CLR
05:49 4.1 °F 1.3 °F 1023.2 in WNW 20.4 mph 20.4 mph 82 % 0.0 in 0.0 W/m2 CLR
05:54 4.1 °F 1.3 °F 1023.2 in WNW 18.5 mph 18.5 mph 82 % 0.0 in 0.0 W/m2 CLR
05:59 4.0 °F 1.2 °F 1023.2 in WNW 24.1 mph 24.1 mph 82 % 0.0 in 0.0 W/m2 CLR
06:04 4.0 °F 1.2 °F 1023.2 in WNW 24.1 mph 24.1 mph 82 % 0.0 in 0.0 W/m2 CLR
06:09 4.0 °F 1.2 °F 1023.2 in WNW 20.4 mph 20.4 mph 82 % 0.0 in 0.0 W/m2 CLR
06:14 4.0 °F 1.2 °F 1023.6 in WNW 22.5 mph 22.5 mph 82 % 0.0 in 0.0 W/m2 CLR
06:19 4.1 °F 1.3 °F 1023.2 in WNW 18.5 mph 18.5 mph 82 % 0.0 in 0.0 W/m2 CLR
06:24 4.1 °F 1.3 °F 1023.2 in WNW 22.2 mph 22.2 mph 82 % 0.0 in 0.0 W/m2 CLR
06:29 4.1 °F 1.3 °F 1023.2 in WNW 25.9 mph 25.9 mph 82 % 0.0 in 0.0 W/m2 CLR
06:34 4.2 °F 1.2 °F 1023.2 in WNW 18.5 mph 18.5 mph 81 % 0.0 in 0.0 W/m2 CLR
06:39 4.2 °F 1.2 °F 1023.6 in WNW 29.6 mph 29.6 mph 81 % 0.0 in 0.0 W/m2 CLR
06:44 4.3 °F 1.3 °F 1023.6 in WNW 20.4 mph 20.4 mph 81 % 0.0 in 0.0 W/m2 CLR
06:49 4.2 °F 1.2 °F 1023.6 in WNW 16.7 mph 16.7 mph 81 % 0.0 in 0.0 W/m2 CLR
06:54 4.2 °F 1.2 °F 1023.6 in WNW 18.5 mph 18.5 mph 81 % 0.0 in 0.0 W/m2 CLR
06:59 4.2 °F 1.2 °F 1023.6 in WNW 13.0 mph 13.0 mph 81 % 0.0 in 0.0 W/m2 CLR
07:04 4.2 °F 1.2 °F 1023.6 in WNW 11.3 mph 11.3 mph 81 % 0.0 in 0.0 W/m2 CLR
07:09 4.2 °F 1.2 °F 1023.6 in Calm     81 % 0.0 in 0.0 W/m2 CLR
07:14 4.1 °F 1.1 °F 1023.6 in WNW 9.7 mph 9.7 mph 81 % 0.0 in 0.0 W/m2 CLR
07:19 4.0 °F 1.1 °F 1023.6 in WNW 11.1 mph 11.1 mph 81 % 0.0 in 0.0 W/m2 CLR
07:24 4.0 °F 1.1 °F 1023.6 in WNW 11.1 mph 11.1 mph 81 % 0.0 in 0.0 W/m2 CLR
07:29 3.9 °F 1.1 °F 1023.6 in WNW 14.5 mph 14.5 mph 82 % 0.0 in 0.0 W/m2 CLR
07:34 3.9 °F 1.2 °F 1023.2 in WNW 16.7 mph 16.7 mph 82 % 0.0 in 0.0 W/m2 CLR
07:39 4.1 °F 1.1 °F 1023.2 in WNW 18.5 mph 18.5 mph 81 % 0.0 in 0.0 W/m2 CLR
07:44 4.1 °F 1.2 °F 1023.2 in West 18.5 mph 18.5 mph 81 % 0.0 in 0.0 W/m2 CLR
07:49 4.1 °F 1.2 °F 1023.6 in West 18.5 mph 18.5 mph 81 % 0.0 in 0.0 W/m2 CLR
07:54 4.2 °F 1.2 °F 1023.2 in West 18.5 mph 18.5 mph 81 % 0.0 in 0.0 W/m2 CLR
07:59 4.2 °F 1.1 °F 1023.6 in West 16.7 mph 16.7 mph 80 % 0.0 in 0.0 W/m2 CLR
08:04 4.2 °F 1.2 °F 1023.6 in West 16.7 mph 16.7 mph 81 % 0.0 in 7.0 W/m2 OVC
08:09 4.1 °F 1.2 °F 1023.2 in West 16.1 mph 16.1 mph 81 % 0.0 in 9.0 W/m2 BKN
08:14 4.1 °F 1.2 °F 1023.6 in West 14.8 mph 14.8 mph 81 % 0.0 in 11.0 W/m2 BKN
08:19 4.2 °F 1.2 °F 1023.6 in West 16.7 mph 16.7 mph 81 % 0.0 in 12.0 W/m2 BKN
08:24 4.1 °F 0.9 °F 1023.6 in WSW 4.8 mph 4.8 mph 80 % 0.0 in 16.0 W/m2 BKN
08:29 3.8 °F 0.8 °F 1023.6 in WSW 1.9 mph 1.9 mph 81 % 0.0 in 18.0 W/m2 BKN
08:34 3.7 °F 0.9 °F 1023.6 in SW 3.7 mph 3.7 mph 82 % 0.0 in 21.0 W/m2 BKN
08:39 3.7 °F 0.9 °F 1023.2 in SW 5.6 mph   82 % 0.0 in 30.0 W/m2 BKN
08:44 3.8 °F 1.2 °F 1023.2 in SW 1.9 mph   83 % 0.0 in 42.0 W/m2 BKN
08:49 4.2 °F 1.4 °F 1023.2 in WSW 16.7 mph 16.7 mph 82 % 0.0 in 54.0 W/m2 SCT
08:54 4.6 °F 1.6 °F 1023.2 in West 14.8 mph 14.8 mph 81 % 0.0 in 70.0 W/m2 FEW
08:59 4.9 °F 1.8 °F 1023.2 in West 16.7 mph 16.7 mph 80 % 0.0 in 84.0 W/m2 FEW
09:04 5.2 °F 1.8 °F 1023.2 in West 12.9 mph 12.9 mph 79 % 0.0 in 98.0 W/m2 FEW
09:09 5.3 °F 1.8 °F 1023.2 in WNW 14.8 mph 14.8 mph 78 % 0.0 in 116.0 W/m2 CLR
09:14 5.3 °F 1.8 °F 1023.2 in WNW 14.5 mph 14.5 mph 78 % 0.0 in 123.0 W/m2 CLR
09:19 5.4 °F 1.9 °F 1023.2 in WNW 4.8 mph 4.8 mph 78 % 0.0 in 148.0 W/m2 CLR
09:24 5.7 °F 2.0 °F 1023.2 in WNW 1.9 mph 1.9 mph 77 % 0.0 in 165.0 W/m2 CLR
09:30 5.9 °F 2.0 °F 1023.2 in WSW 5.6 mph   76 % 0.0 in 84.0 W/m2 CLR
09:35 6.1 °F 2.2 °F 1022.9 in Calm     76 % 0.0 in 206.0 W/m2 CLR
09:40 6.3 °F 2.2 °F 1022.9 in Calm     75 % 0.0 in 221.0 W/m2 CLR
09:45 6.3 °F 2.1 °F 1022.9 in SW 5.6 mph 6.4 mph 74 % 0.0 in 237.0 W/m2 CLR
09:50 6.4 °F 2.1 °F 1022.9 in WSW 13.0 mph 13.0 mph 74 % 0.0 in 264.0 W/m2 CLR
09:55 6.4 °F 2.1 °F 1022.9 in West 22.2 mph 22.2 mph 74 % 0.0 in 271.0 W/m2 CLR
10:00 6.3 °F 1.8 °F 1022.9 in West 25.9 mph 25.9 mph 73 % 0.0 in 292.0 W/m2 CLR
10:05 6.5 °F 2.0 °F 1022.9 in West 13.0 mph 13.0 mph 73 % 0.0 in 299.0 W/m2 CLR
10:10 6.7 °F 2.0 °F 1022.9 in West 13.0 mph 13.0 mph 72 % 0.0 in 309.0 W/m2 CLR
10:15 6.8 °F 2.1 °F 1022.6 in West 14.8 mph 14.8 mph 72 % 0.0 in 325.0 W/m2 CLR
10:20 6.9 °F 2.0 °F 1022.6 in West 18.5 mph 18.5 mph 71 % 0.0 in 338.0 W/m2 CLR
10:25 6.9 °F 1.8 °F 1022.6 in West 22.2 mph 22.2 mph 70 % 0.0 in 348.0 W/m2 CLR
10:30 7.0 °F 2.1 °F 1022.2 in West 18.5 mph 18.5 mph 71 % 0.0 in 360.0 W/m2 CLR
10:35 7.1 °F 2.2 °F 1022.2 in WNW 14.8 mph 14.8 mph 71 % 0.0 in 374.0 W/m2 CLR
10:40 7.1 °F 2.0 °F 1022.2 in WNW 29.6 mph 29.6 mph 70 % 0.0 in 387.0 W/m2 CLR
10:45 7.1 °F 1.9 °F 1022.2 in WNW 16.7 mph 16.7 mph 70 % 0.0 in 396.0 W/m2 CLR
10:50 7.3 °F 1.9 °F 1022.2 in WNW 14.8 mph 14.8 mph 69 % 0.0 in 406.0 W/m2 CLR
10:55 7.3 °F 2.2 °F 1022.2 in WNW 18.5 mph 18.5 mph 70 % 0.0 in 420.0 W/m2 CLR
11:00 7.4 °F 2.3 °F 1022.2 in WNW 16.7 mph 16.7 mph 70 % 0.0 in 431.0 W/m2 CLR
11:05 7.6 °F 2.5 °F 1022.2 in WNW 11.3 mph 11.3 mph 70 % 0.0 in 441.0 W/m2 CLR
11:10 7.8 °F 2.2 °F 1021.9 in West 20.4 mph 20.4 mph 68 % 0.0 in 450.0 W/m2 CLR
11:15 7.9 °F 2.2 °F 1021.9 in WNW 29.6 mph 29.6 mph 67 % 0.0 in 462.0 W/m2 CLR
11:20 7.9 °F 2.3 °F 1021.9 in WNW 20.4 mph 20.4 mph 68 % 0.0 in 469.0 W/m2 CLR
11:25 7.9 °F 2.2 °F 1021.9 in WNW 25.9 mph 25.9 mph 67 % 0.0 in 478.0 W/m2 CLR
11:30 8.0 °F 2.2 °F 1021.9 in WNW 20.4 mph 20.4 mph 67 % 0.0 in 487.0 W/m2 CLR
11:35 8.1 °F 1.7 °F 1021.9 in WNW 20.4 mph 20.4 mph 64 % 0.0 in 496.0 W/m2 CLR
11:40 8.1 °F 2.1 °F 1021.9 in West 27.8 mph 27.8 mph 66 % 0.0 in 504.0 W/m2 CLR
11:45 8.2 °F 2.0 °F 1021.9 in WNW 22.2 mph 22.2 mph 65 % 0.0 in 510.0 W/m2 CLR
11:50 8.3 °F 1.9 °F 1021.9 in NW 22.5 mph 22.5 mph 64 % 0.0 in 519.0 W/m2 CLR
11:55 8.6 °F 2.3 °F 1021.6 in WNW 18.5 mph 18.5 mph 65 % 0.0 in 524.0 W/m2 CLR
12:00 8.6 °F 2.6 °F 1021.6 in WNW 18.5 mph 18.5 mph 66 % 0.0 in 531.0 W/m2 CLR
12:05 8.7 °F 1.8 °F 1021.6 in WNW 20.4 mph 20.4 mph 62 % 0.0 in 540.0 W/m2 CLR
12:10 8.7 °F 1.6 °F 1021.6 in WNW 18.5 mph 18.5 mph 61 % 0.0 in 543.0 W/m2 CLR
12:15 8.9 °F 1.8 °F 1021.6 in WNW 24.1 mph 24.1 mph 61 % 0.0 in 547.0 W/m2 CLR
12:20 9.0 °F 1.9 °F 1021.6 in WNW 20.4 mph 20.4 mph 61 % 0.0 in 554.0 W/m2 CLR
12:25 9.1 °F 1.9 °F 1021.2 in NW 14.8 mph 14.8 mph 61 % 0.0 in 557.0 W/m2 CLR
12:30 9.3 °F 1.7 °F 1021.2 in WNW 22.5 mph 22.5 mph 59 % 0.0 in 561.0 W/m2 CLR
12:35 9.3 °F 2.2 °F 1020.9 in WNW 17.7 mph 17.7 mph 61 % 0.0 in 563.0 W/m2 CLR
12:40 9.4 °F 1.8 °F 1020.9 in WNW 16.7 mph 16.7 mph 59 % 0.0 in 570.0 W/m2 CLR
12:45 9.6 °F 1.9 °F 1020.9 in WNW 18.5 mph 18.5 mph 59 % 0.0 in 571.0 W/m2 CLR
12:50 9.7 °F 1.8 °F 1020.5 in NW 22.2 mph 22.2 mph 58 % 0.0 in 575.0 W/m2 CLR
12:55 9.7 °F 1.8 °F 1020.5 in WNW 14.8 mph 14.8 mph 58 % 0.0 in 577.0 W/m2 CLR
13:00 9.8 °F 1.4 °F 1020.5 in WNW 20.4 mph 20.4 mph 56 % 0.0 in 578.0 W/m2 CLR
13:05 9.8 °F 1.4 °F 1020.5 in WNW 16.7 mph 16.7 mph 56 % 0.0 in 577.0 W/m2 CLR
13:10 9.9 °F 1.3 °F 1020.5 in WNW 18.5 mph 18.5 mph 55 % 0.0 in 580.0 W/m2 CLR
13:15 10.1 °F 1.4 °F 1020.5 in WNW 22.2 mph 22.2 mph 55 % 0.0 in 582.0 W/m2 CLR
13:20 10.1 °F 0.9 °F 1020.2 in WNW 13.0 mph 13.0 mph 53 % 0.0 in 580.0 W/m2 CLR
13:25 10.2 °F 0.7 °F 1020.2 in WNW 16.7 mph 16.7 mph 52 % 0.0 in 580.0 W/m2 CLR
13:30 10.2 °F 1.1 °F 1020.2 in WNW 17.7 mph 17.7 mph 53 % 0.0 in 580.0 W/m2 CLR
13:35 10.4 °F 1.2 °F 1020.2 in WNW 11.1 mph 11.1 mph 53 % 0.0 in 578.0 W/m2 CLR
13:40 10.4 °F 1.0 °F 1019.9 in WNW 13.0 mph 13.0 mph 52 % 0.0 in 578.0 W/m2 CLR
13:45 10.7 °F 1.0 °F 1019.9 in NW 3.7 mph 3.7 mph 51 % 0.0 in 578.0 W/m2 CLR
13:50 10.9 °F 1.1 °F 1019.9 in WNW 16.1 mph 16.1 mph 51 % 0.0 in 577.0 W/m2 CLR
13:55 10.8 °F 0.8 °F 1019.5 in WNW 24.1 mph 24.1 mph 50 % 0.0 in 573.0 W/m2 CLR
14:00 10.9 °F 1.1 °F 1019.5 in WNW 19.3 mph 19.3 mph 51 % 0.0 in 568.0 W/m2 CLR
14:05 11.0 °F 1.2 °F 1019.5 in WNW 16.7 mph 16.7 mph 51 % 0.0 in 566.0 W/m2 CLR
14:10 11.1 °F 0.7 °F 1019.2 in NW 18.5 mph 18.5 mph 49 % 0.0 in 561.0 W/m2 CLR
14:15 11.1 °F 1.3 °F 1019.2 in NW 18.5 mph 18.5 mph 51 % 0.0 in 557.0 W/m2 CLR
14:20 11.2 °F 0.9 °F 1019.2 in NW 18.5 mph 18.5 mph 49 % 0.0 in 552.0 W/m2 CLR
14:25 11.2 °F 0.6 °F 1018.8 in NW 16.7 mph 16.7 mph 48 % 0.0 in 548.0 W/m2 CLR
14:30 11.4 °F 0.8 °F 1018.8 in WNW 14.8 mph 14.8 mph 48 % 0.0 in 543.0 W/m2 CLR
14:35 11.6 °F 0.6 °F 1018.8 in WNW 14.8 mph 14.8 mph 47 % 0.0 in 534.0 W/m2 CLR
14:40 11.6 °F 0.9 °F 1018.8 in NW 1.9 mph 1.9 mph 48 % 0.0 in 531.0 W/m2 CLR
14:45 11.6 °F 0.1 °F 1018.8 in NNW 16.7 mph 16.7 mph 45 % 0.0 in 519.0 W/m2 CLR
14:50 11.6 °F 0.7 °F 1018.5 in NNW 9.3 mph 9.3 mph 47 % 0.0 in 512.0 W/m2 CLR
14:55 11.7 °F 0.1 °F 1018.5 in NNW 14.5 mph 14.5 mph 45 % 0.0 in 504.0 W/m2 CLR
15:00 11.8 °F 0.5 °F 1018.5 in NW 8.0 mph 8.0 mph 46 % 0.0 in 496.0 W/m2 CLR
15:05 11.9 °F 0.3 °F 1018.2 in NW 14.5 mph 14.5 mph 45 % 0.0 in 489.0 W/m2 CLR
15:11 12.0 °F -0.2 °F 1018.2 in NNW 1.9 mph   43 % 0.0 in 480.0 W/m2 CLR
15:16 12.1 °F -0.1 °F 1018.2 in NNW 13.0 mph 13.0 mph 43 % 0.0 in 468.0 W/m2 CLR
15:20 12.1 °F -0.2 °F 1018.2 in NW 5.6 mph 5.6 mph 43 % 0.0 in 459.0 W/m2 CLR
15:24 12.1 °F -0.1 °F 1018.2 in NNW 9.7 mph 9.7 mph 43 % 0.0 in 452.0 W/m2 CLR
15:29 12.3 °F -0.3 °F 1017.8 in NNW 13.0 mph 13.0 mph 42 % 0.0 in 443.0 W/m2 CLR
15:34 12.2 °F -0.3 °F 1017.8 in Calm     42 % 0.0 in 432.0 W/m2 CLR
15:39 12.3 °F -0.6 °F 1017.8 in Calm     41 % 0.0 in 420.0 W/m2 CLR
15:44 12.4 °F -0.8 °F 1017.8 in Calm     40 % 0.0 in 413.0 W/m2 CLR
15:49 12.7 °F 0.1 °F 1017.8 in Calm     42 % 0.0 in 399.0 W/m2 CLR
15:54 12.7 °F -0.3 °F 1017.8 in NNW 1.9 mph 1.9 mph 41 % 0.0 in 381.0 W/m2 CLR
15:59 12.5 °F -0.4 °F 1017.5 in Calm     41 % 0.0 in 327.0 W/m2 CLR
16:04 12.6 °F -0.7 °F 1017.5 in Calm     40 % 0.0 in 359.0 W/m2 CLR
16:09 12.8 °F -0.4 °F 1017.5 in Calm     40 % 0.0 in 348.0 W/m2 CLR
16:14 12.8 °F -0.1 °F 1017.5 in Calm     41 % 0.0 in 336.0 W/m2 CLR
16:19 12.9 °F -0.7 °F 1017.5 in Calm     39 % 0.0 in 322.0 W/m2 CLR
16:24 13.1 °F -0.3 °F 1017.5 in Calm     40 % 0.0 in 315.0 W/m2 CLR
16:29 13.1 °F -1.3 °F 1017.5 in Calm     37 % 0.0 in 299.0 W/m2 CLR
16:32 13.1 °F -0.9 °F 1017.5 in Calm     38 % 0.0 in 278.0 W/m2 CLR
16:37 13.0 °F -0.3 °F 1017.2 in Calm     40 % 0.0 in 281.0 W/m2 CLR
16:42 13.0 °F -0.7 °F 1017.2 in Calm     39 % 0.0 in 269.0 W/m2 CLR
16:47 13.1 °F -0.6 °F 1017.2 in Calm     39 % 0.0 in 251.0 W/m2 CLR
16:52 13.1 °F -0.3 °F 1017.2 in Calm     40 % 0.0 in 237.0 W/m2 CLR
16:57 12.9 °F -0.3 °F 1017.2 in Calm     40 % 0.0 in 207.0 W/m2 CLR
17:02 12.9 °F -0.4 °F 1017.2 in Calm     40 % 0.0 in 197.0 W/m2 CLR
17:07 12.8 °F -0.5 °F 1017.2 in Calm     40 % 0.0 in 127.0 W/m2 CLR
17:12 12.5 °F -0.8 °F 1017.2 in Calm     40 % 0.0 in 81.0 W/m2 CLR
17:17 12.3 °F -0.9 °F 1016.8 in Calm     40 % 0.0 in 100.0 W/m2 CLR
17:22 12.2 °F -0.7 °F 1016.8 in Calm     41 % 0.0 in 70.0 W/m2 CLR
17:27 12.0 °F -0.6 °F 1016.8 in Calm     42 % 0.0 in 40.0 W/m2 BKN
17:32 11.8 °F -0.7 °F 1016.8 in Calm     42 % 0.0 in 39.0 W/m2 BKN
17:37 11.6 °F -0.6 °F 1016.8 in Calm     43 % 0.0 in 40.0 W/m2 BKN
17:42 11.3 °F -0.2 °F 1017.2 in Calm     45 % 0.0 in 44.0 W/m2 BKN
17:47 11.2 °F -0.3 °F 1017.2 in Calm     45 % 0.0 in 54.0 W/m2 SCT
17:52 11.1 °F -0.2 °F 1016.8 in Calm     46 % 0.0 in 35.0 W/m2 BKN
17:57 10.9 °F -0.2 °F 1017.2 in Calm     46 % 0.0 in 25.0 W/m2 BKN
18:02 10.8 °F -0.1 °F 1017.2 in Calm     47 % 0.0 in 21.0 W/m2 BKN
18:07 10.6 °F -0.3 °F 1016.8 in Calm     47 % 0.0 in 16.0 W/m2 BKN
18:12 10.4 °F -0.2 °F 1017.2 in Calm     48 % 0.0 in 12.0 W/m2 BKN
18:17 10.2 °F 0.2 °F 1017.2 in Calm     50 % 0.0 in 7.0 W/m2 BKN
18:22 10.0 °F 0.1 °F 1017.2 in Calm     50 % 0.0 in 5.0 W/m2 OVC
18:27 9.8 °F -0.1 °F 1017.2 in Calm     50 % 0.0 in 0.0 W/m2 OVC
18:32 9.6 °F 0.2 °F 1017.2 in Calm     52 % 0.0 in 0.0 W/m2 OVC
18:37 9.4 °F -0.4 °F 1017.2 in Calm     50 % 0.0 in 0.0 W/m2 CLR
18:42 9.4 °F -0.5 °F 1017.2 in Calm     50 % 0.0 in 0.0 W/m2 CLR
18:47 9.3 °F 0.5 °F 1017.2 in Calm     54 % 0.0 in 0.0 W/m2 CLR
18:52 8.9 °F 0.4 °F 1017.2 in Calm     55 % 0.0 in 0.0 W/m2 CLR
18:57 8.6 °F 0.6 °F 1017.2 in Calm     57 % 0.0 in 0.0 W/m2 CLR
19:02 8.2 °F 0.7 °F 1017.2 in Calm     59 % 0.0 in 0.0 W/m2 CLR
19:07 7.9 °F 1.3 °F 1017.2 in Calm     63 % 0.0 in 0.0 W/m2 CLR
19:12 7.5 °F 1.1 °F 1017.2 in Calm     64 % 0.0 in 0.0 W/m2 CLR
19:17 7.2 °F 1.0 °F 1017.2 in Calm     65 % 0.0 in 0.0 W/m2 CLR
19:22 6.8 °F 0.9 °F 1017.2 in Calm     66 % 0.0 in 0.0 W/m2 CLR
19:27 6.5 °F 1.0 °F 1017.2 in Calm     68 % 0.0 in 0.0 W/m2 CLR
19:32 6.1 °F 1.0 °F 1017.2 in Calm     70 % 0.0 in 0.0 W/m2 CLR
19:37 5.8 °F 0.8 °F 1017.2 in Calm     70 % 0.0 in 0.0 W/m2 CLR
19:42 5.7 °F 0.9 °F 1017.5 in Calm     71 % 0.0 in 0.0 W/m2 CLR
19:47 5.6 °F 1.1 °F 1017.2 in Calm     73 % 0.0 in 0.0 W/m2 CLR
19:52 5.2 °F 0.9 °F 1017.5 in Calm     74 % 0.0 in 0.0 W/m2 CLR
19:57 5.0 °F 0.9 °F 1017.5 in Calm     75 % 0.0 in 0.0 W/m2 CLR
20:02 4.8 °F 0.9 °F 1017.2 in Calm     76 % 0.0 in 0.0 W/m2 CLR
20:07 4.6 °F 0.9 °F 1017.5 in Calm     77 % 0.0 in 0.0 W/m2 CLR
20:12 4.5 °F 0.8 °F 1017.5 in Calm     77 % 0.0 in 0.0 W/m2 CLR
20:17 4.4 °F 0.8 °F 1017.5 in Calm     77 % 0.0 in 0.0 W/m2 CLR
20:22 4.3 °F 0.8 °F 1017.5 in Calm     78 % 0.0 in 0.0 W/m2 CLR
20:27 4.2 °F 0.5 °F 1017.5 in Calm     77 % 0.0 in 0.0 W/m2 CLR
20:32 3.9 °F 0.4 °F 1017.5 in Calm     78 % 0.0 in 0.0 W/m2 CLR
20:37 3.8 °F 0.4 °F 1017.5 in Calm     79 % 0.0 in 0.0 W/m2 CLR
20:42 3.6 °F 0.3 °F 1017.5 in Calm     79 % 0.0 in 0.0 W/m2 CLR
20:47 3.4 °F 0.3 °F 1017.5 in Calm     80 % 0.0 in 0.0 W/m2 CLR
20:52 3.3 °F 0.3 °F 1017.5 in Calm     81 % 0.0 in 0.0 W/m2 CLR
20:57 3.2 °F 0.3 °F 1017.5 in Calm     81 % 0.0 in 0.0 W/m2 CLR
21:02 3.2 °F 0.1 °F 1017.5 in Calm     80 % 0.0 in 0.0 W/m2 CLR
21:07 3.1 °F 0.2 °F 1017.5 in Calm     81 % 0.0 in 0.0 W/m2 CLR
21:12 3.1 °F 0.2 °F 1017.5 in Calm     81 % 0.0 in 0.0 W/m2 CLR
21:17 3.1 °F 0.2 °F 1017.5 in Calm     81 % 0.0 in 0.0 W/m2 CLR
21:22 3.1 °F 0.3 °F 1017.5 in Calm     82 % 0.0 in 0.0 W/m2 CLR
21:27 3.1 °F 0.3 °F 1017.2 in Calm     82 % 0.0 in 0.0 W/m2 CLR
21:32 3.0 °F 0.2 °F 1017.2 in Calm     82 % 0.0 in 0.0 W/m2 CLR
21:37 3.1 °F 0.4 °F 1016.8 in Calm     83 % 0.0 in 0.0 W/m2 CLR
21:43 3.1 °F 0.5 °F 1016.8 in Calm     83 % 0.0 in 0.0 W/m2 CLR
21:48 3.3 °F 0.7 °F 1016.8 in Calm     83 % 0.0 in 0.0 W/m2 CLR
21:53 3.4 °F 0.7 °F 1016.8 in Calm     82 % 0.0 in 0.0 W/m2 CLR
21:58 3.4 °F 0.5 °F 1016.8 in Calm     81 % 0.0 in 0.0 W/m2 CLR
22:03 3.3 °F 0.4 °F 1016.8 in Calm     81 % 0.0 in 0.0 W/m2 CLR
22:08 3.3 °F 0.5 °F 1016.8 in Calm     82 % 0.0 in 0.0 W/m2 CLR
22:13 3.3 °F 0.5 °F 1016.8 in Calm     82 % 0.0 in 0.0 W/m2 CLR
22:18 3.4 °F 0.6 °F 1016.5 in Calm     82 % 0.0 in 0.0 W/m2 CLR
22:23 3.6 °F 0.7 °F 1016.8 in Calm     81 % 0.0 in 0.0 W/m2 CLR
22:28 3.8 °F 0.7 °F 1016.5 in Calm     80 % 0.0 in 0.0 W/m2 CLR
22:33 3.8 °F 0.8 °F 1016.5 in Calm     81 % 0.0 in 0.0 W/m2 CLR
22:38 3.7 °F 0.7 °F 1016.5 in Calm     81 % 0.0 in 0.0 W/m2 CLR
22:43 3.6 °F 0.6 °F 1016.5 in Calm     81 % 0.0 in 0.0 W/m2 CLR
22:48 3.5 °F 0.7 °F 1016.5 in Calm     82 % 0.0 in 0.0 W/m2 CLR
22:53 3.5 °F 0.7 °F 1016.5 in Calm     82 % 0.0 in 0.0 W/m2 CLR
22:58 3.5 °F 0.7 °F 1016.5 in Calm     82 % 0.0 in 0.0 W/m2 CLR
23:03 3.5 °F 0.7 °F 1016.5 in Calm     82 % 0.0 in 0.0 W/m2 CLR
23:08 3.5 °F 0.7 °F 1016.5 in Calm     82 % 0.0 in 0.0 W/m2 CLR
23:13 3.4 °F 0.8 °F 1016.5 in Calm     83 % 0.0 in 0.0 W/m2 CLR
23:16 3.4 °F 0.8 °F 1016.5 in Calm     83 % 0.0 in 0.0 W/m2 CLR
23:21 3.3 °F 0.7 °F 1016.5 in Calm     83 % 0.0 in 0.0 W/m2 CLR
23:26 3.3 °F 0.7 °F 1016.5 in Calm     83 % 0.0 in 0.0 W/m2 CLR
23:31 3.3 °F 0.7 °F 1016.5 in Calm     83 % 0.0 in 0.0 W/m2 CLR
23:36 3.3 °F 0.8 °F 1016.5 in Calm     84 % 0.0 in 0.0 W/m2 CLR
23:41 3.3 °F 0.7 °F 1016.5 in Calm     83 % 0.0 in 0.0 W/m2 CLR
23:46 3.2 °F 0.6 °F 1016.5 in Calm     83 % 0.0 in 0.0 W/m2 CLR
23:55 3.1 °F 0.5 °F 1016.5 in Calm     83 % 0.0 in 0.0 W/m2 CLR
Lo Temps de Massalio
Compliments of Weather Underground - 1.25 mb